Alvordton, Ohio
Current Conditions -  °F | °C
As of 5:55 AM on Sunday 23 Nov 2014 (Local Time) from KUSE Reporting Station
Haze Haze  
Wind Chill: 40°   Ceiling: 3000
Heat Index: 45°   Visibility: 5mi
Dew Point: 45°   Wind: 8mph
Humidity: 100%   Direction: 190°S
Pressure: 29.95"   Gusts: NA
Location:  41.67°N, 84.44°W
Report Text: KUSE 231055Z AUTO 19007KT 5SM BR BKN030 OVC047 07/07 A2995 RMK AO2
Loading
Personal Weather Stations






























Interactive Weather Map New forecast layout! Learn more

10-Day Weather Forecast

Advertisements
Track Severe Weather on mobile